createdAt,value
2023-02-25T00:00:05.521Z,2174
2023-02-25T00:01:05.527Z,1700
2023-02-25T00:03:05.860Z,2259
2023-02-25T00:04:05.534Z,1528
2023-02-25T00:05:05.534Z,1389
2023-02-25T00:06:05.519Z,1385
2023-02-25T00:08:05.729Z,1466
2023-02-25T00:09:05.555Z,1867
2023-02-25T00:10:05.559Z,1451
2023-02-25T00:11:05.530Z,1969
2023-02-25T00:13:17.260Z,1951
2023-02-25T00:14:05.530Z,1381
2023-02-25T00:15:05.548Z,1478
2023-02-25T00:16:05.533Z,2038
2023-02-25T00:18:05.734Z,1945
2023-02-25T00:19:05.525Z,2052
2023-02-25T00:20:05.541Z,1623
2023-02-25T00:21:05.527Z,1358
2023-02-25T00:23:05.722Z,1899
2023-02-25T00:24:15.816Z,1216
2023-02-25T00:25:05.546Z,1836
2023-02-25T00:26:05.534Z,1459
2023-02-25T00:28:05.704Z,1853
2023-02-25T00:29:05.535Z,1478
2023-02-25T00:30:05.604Z,1920
2023-02-25T00:31:05.640Z,1510
2023-02-25T00:33:05.721Z,1528
2023-02-25T00:34:05.550Z,1687
2023-02-25T00:35:05.562Z,1381
2023-02-25T00:36:05.567Z,2070
2023-02-25T00:38:15.221Z,1945
2023-02-25T00:39:05.602Z,1808
2023-02-25T00:40:05.542Z,1430
2023-02-25T00:41:05.536Z,1846
2023-02-25T00:43:05.701Z,1242
2023-02-25T00:44:05.535Z,1389
2023-02-25T00:45:05.536Z,1846
2023-02-25T00:46:05.557Z,1899
2023-02-25T00:48:05.759Z,1340
2023-02-25T00:49:05.579Z,1650
2023-02-25T00:50:05.543Z,1351
2023-02-25T00:51:05.542Z,1776
2023-02-25T00:53:05.750Z,1174
2023-02-25T00:54:05.553Z,1817
2023-02-25T00:55:05.555Z,1791
2023-02-25T00:56:05.565Z,1238
2023-02-25T00:58:05.785Z,1631
2023-02-25T00:59:05.551Z,1310
2023-02-25T01:00:05.554Z,1381
2023-02-25T01:01:05.576Z,1362
2023-02-25T01:03:05.803Z,1400
2023-02-25T01:04:05.581Z,1832
2023-02-25T01:05:05.543Z,1389
2023-02-25T01:06:05.580Z,1749
2023-02-25T01:08:05.698Z,1324
2023-02-25T01:09:05.570Z,1279
2023-02-25T01:10:05.547Z,1209
2023-02-25T01:11:05.574Z,1528
2023-02-25T01:13:05.745Z,1610
2023-02-25T01:14:05.633Z,1678
2023-02-25T01:15:05.586Z,1272
2023-02-25T01:16:05.657Z,1678
2023-02-25T01:18:05.778Z,1333
2023-02-25T01:19:05.559Z,1389
2023-02-25T01:20:05.575Z,1377
2023-02-25T01:21:05.550Z,1974
2023-02-25T01:23:05.706Z,1540
2023-02-25T01:24:05.552Z,1524
2023-02-25T01:25:05.585Z,1209
2023-02-25T01:26:05.558Z,1055
2023-02-25T01:28:05.760Z,1700
2023-02-25T01:29:05.551Z,1313
2023-02-25T01:30:05.558Z,1879
2023-02-25T01:31:05.642Z,1344
2023-02-25T01:33:05.738Z,1916
2023-02-25T01:34:05.555Z,1174
2023-02-25T01:35:05.563Z,1258
2023-02-25T01:36:05.558Z,1427
2023-02-25T01:38:05.714Z,1385
2023-02-25T01:39:05.563Z,1430
2023-02-25T01:40:05.565Z,1984
2023-02-25T01:41:05.559Z,1610
2023-02-25T01:43:05.795Z,1720
2023-02-25T01:44:05.583Z,1324
2023-02-25T01:45:05.563Z,1310
2023-02-25T01:46:05.583Z,1300
2023-02-25T01:48:05.725Z,1393
2023-02-25T01:49:05.591Z,1285
2023-02-25T01:50:05.611Z,1791
2023-02-25T01:51:05.625Z,1768
2023-02-25T01:53:05.774Z,1393
2023-02-25T01:54:05.590Z,1827
2023-02-25T01:55:05.604Z,1879
2023-02-25T01:56:05.578Z,1940
2023-02-25T01:58:05.728Z,1430
2023-02-25T01:59:05.590Z,1584
2023-02-25T02:00:05.577Z,2027
2023-02-25T02:01:05.614Z,1808
2023-02-25T02:03:05.780Z,2168
2023-02-25T02:04:05.584Z,2168
2023-02-25T02:05:05.579Z,1553
2023-02-25T02:06:05.580Z,2076
2023-02-25T02:08:05.781Z,2168
2023-02-25T02:09:05.574Z,1916
2023-02-25T02:10:05.576Z,1610
2023-02-25T02:11:05.595Z,1958
2023-02-25T02:13:05.789Z,1389
2023-02-25T02:14:05.617Z,1369
2023-02-25T02:15:05.605Z,1330
2023-02-25T02:16:05.605Z,1225
2023-02-25T02:18:05.815Z,1678
2023-02-25T02:19:05.611Z,1768
2023-02-25T02:20:05.607Z,1397
2023-02-25T02:21:05.581Z,1726
2023-02-25T02:23:05.784Z,1984
2023-02-25T02:24:05.587Z,1768
2023-02-25T02:25:05.590Z,1990
2023-02-25T02:26:05.586Z,2017
2023-02-25T02:28:05.790Z,1574
2023-02-25T02:29:05.614Z,1720
2023-02-25T02:30:05.613Z,1605
2023-02-25T02:31:05.731Z,2197
2023-02-25T02:33:05.798Z,1474
2023-02-25T02:34:05.586Z,1884
2023-02-25T02:35:05.603Z,2388
2023-02-25T02:36:05.622Z,1755
2023-02-25T02:38:05.742Z,1400
2023-02-25T02:39:05.598Z,1369
2023-02-25T02:40:05.592Z,1822
2023-02-25T02:41:05.612Z,921
2023-02-25T02:43:05.737Z,919
2023-02-25T02:44:05.607Z,1063
2023-02-25T02:45:05.596Z,1085
2023-02-25T02:46:05.696Z,1432
2023-02-25T02:48:05.805Z,1474
2023-02-25T02:49:05.585Z,1466
2023-02-25T02:50:05.600Z,1486
2023-02-25T02:51:05.592Z,1470
2023-02-25T02:53:05.784Z,1466
2023-02-25T02:54:05.612Z,966
2023-02-25T02:55:05.616Z,964
2023-02-25T02:56:05.597Z,1274
2023-02-25T02:58:05.744Z,1088
2023-02-25T02:59:05.671Z,1102
2023-02-25T03:00:05.656Z,1345
2023-02-25T03:01:05.745Z,1048
2023-02-25T03:03:05.740Z,1232
2023-02-25T03:04:05.619Z,1470
2023-02-25T03:05:05.589Z,1085
2023-02-25T03:06:05.602Z,1116
2023-02-25T03:08:05.784Z,1482
2023-02-25T03:09:05.594Z,1039
2023-02-25T03:10:05.620Z,1359
2023-02-25T03:11:05.601Z,1359
2023-02-25T03:13:05.759Z,1014
2023-02-25T03:14:05.600Z,1229
2023-02-25T03:15:05.633Z,1261
2023-02-25T03:16:05.595Z,1172
2023-02-25T03:18:05.742Z,1141
2023-02-25T03:19:05.612Z,1107
2023-02-25T03:20:05.610Z,1403
2023-02-25T03:21:05.598Z,1107
2023-02-25T03:23:05.803Z,1470
2023-02-25T03:24:05.605Z,1389
2023-02-25T03:25:05.633Z,987
2023-02-25T03:26:05.633Z,1342
2023-02-25T03:28:05.804Z,1019
2023-02-25T03:29:05.610Z,1489
2023-02-25T03:30:05.606Z,899
2023-02-25T03:31:05.648Z,1444
2023-02-25T03:33:05.815Z,1130
2023-02-25T03:34:05.625Z,1069
2023-02-25T03:35:05.613Z,1440
2023-02-25T03:36:05.620Z,1440
2023-02-25T03:38:05.806Z,1138
2023-02-25T03:39:05.639Z,1517
2023-02-25T03:40:05.603Z,1583
2023-02-25T03:41:05.611Z,1532
2023-02-25T03:43:08.184Z,1528
2023-02-25T03:44:05.643Z,862
2023-02-25T03:45:05.620Z,1014
2023-02-25T03:46:05.654Z,1093
2023-02-25T03:48:05.818Z,1066
2023-02-25T03:49:05.613Z,1193
2023-02-25T03:50:05.623Z,1545
2023-02-25T03:51:05.653Z,1599
2023-02-25T03:53:05.767Z,1104
2023-02-25T03:54:05.617Z,1451
2023-02-25T03:55:05.626Z,1141
2023-02-25T03:56:05.644Z,1301
2023-02-25T03:58:05.764Z,1149
2023-02-25T03:59:05.616Z,1152
2023-02-25T04:00:05.646Z,1294
2023-02-25T04:01:05.617Z,1500
2023-02-25T04:03:05.863Z,1549
2023-02-25T04:04:05.616Z,1688
2023-02-25T04:05:05.652Z,1155
2023-02-25T04:06:05.639Z,1169
2023-02-25T04:08:05.822Z,1466
2023-02-25T04:09:05.651Z,1706
2023-02-25T04:10:05.615Z,1623
2023-02-25T04:11:05.637Z,1274
2023-02-25T04:13:05.771Z,1370
2023-02-25T04:14:05.619Z,1132
2023-02-25T04:15:05.648Z,1180
2023-02-25T04:16:05.722Z,992
2023-02-25T04:18:05.850Z,1603
2023-02-25T04:19:05.619Z,1277
2023-02-25T04:20:05.633Z,1627
2023-02-25T04:21:05.625Z,1180
2023-02-25T04:23:05.811Z,1827
2023-02-25T04:24:05.692Z,1235
2023-02-25T04:25:05.629Z,1414
2023-02-25T04:26:05.633Z,1432
2023-02-25T04:28:05.788Z,1525
2023-02-25T04:29:05.637Z,1493
2023-02-25T04:30:05.626Z,1540
2023-02-25T04:31:05.699Z,1558
2023-02-25T04:33:05.828Z,1577
2023-02-25T04:34:05.632Z,2210
2023-02-25T04:35:05.634Z,1684
2023-02-25T04:36:05.643Z,2122
2023-02-25T04:38:07.381Z,2056
2023-02-25T04:39:05.638Z,2205
2023-02-25T04:40:05.630Z,2027
2023-02-25T04:41:05.637Z,1614
2023-02-25T04:43:05.857Z,1905
2023-02-25T04:44:05.627Z,1500
2023-02-25T04:45:05.681Z,1850
2023-02-25T04:46:05.686Z,1577
2023-02-25T04:48:05.790Z,1410
2023-02-25T04:49:05.659Z,1885
2023-02-25T04:50:05.651Z,1944
2023-02-25T04:51:05.660Z,1474
2023-02-25T04:53:05.863Z,1831
2023-02-25T04:54:05.664Z,1905
2023-02-25T04:55:05.642Z,1478
2023-02-25T04:56:05.647Z,1859
2023-02-25T04:58:05.791Z,1944
2023-02-25T04:59:05.665Z,1568
2023-02-25T05:00:05.674Z,1517
2023-02-25T05:01:05.652Z,1890
2023-02-25T05:03:05.875Z,1653
2023-02-25T05:04:05.641Z,1425
2023-02-25T05:05:05.703Z,2140
2023-02-25T05:06:05.684Z,2156
2023-02-25T05:08:05.796Z,1688
2023-02-25T05:09:05.713Z,1528
2023-02-25T05:10:05.670Z,1352
2023-02-25T05:11:05.652Z,1736
2023-02-25T05:13:05.800Z,1401
2023-02-25T05:14:05.645Z,1649
2023-02-25T05:15:05.643Z,2068
2023-02-25T05:16:05.715Z,1653
2023-02-25T05:18:05.850Z,1599
2023-02-25T05:19:05.672Z,1905
2023-02-25T05:20:05.677Z,1925
2023-02-25T05:21:05.649Z,1536
2023-02-25T05:23:05.853Z,1966
2023-02-25T05:24:05.655Z,1822
2023-02-25T05:25:05.654Z,1869
2023-02-25T05:26:05.658Z,1455
2023-02-25T05:28:07.374Z,1845
2023-02-25T05:29:05.689Z,1338
2023-02-25T05:30:05.722Z,1352
2023-02-25T05:31:05.800Z,1596
2023-02-25T05:33:05.983Z,1161
2023-02-25T05:34:05.689Z,1320
2023-02-25T05:35:05.696Z,1697
2023-02-25T05:36:05.656Z,1771
2023-02-25T05:38:05.811Z,1451
2023-02-25T05:39:05.647Z,1920
2023-02-25T05:40:05.675Z,1916
2023-02-25T05:41:05.689Z,1444
2023-02-25T05:43:05.807Z,1440
2023-02-25T05:44:05.660Z,1251
2023-02-25T05:45:05.672Z,1553
2023-02-25T05:46:05.694Z,1618
2023-02-25T05:48:05.840Z,1255
2023-02-25T05:49:05.688Z,1336
2023-02-25T05:50:05.672Z,1753
2023-02-25T05:51:05.696Z,1753
2023-02-25T05:53:05.830Z,1715
2023-02-25T05:54:05.687Z,1649
2023-02-25T05:55:05.685Z,1692
2023-02-25T05:56:05.655Z,1301
2023-02-25T05:58:05.816Z,1701
2023-02-25T05:59:05.691Z,1363
2023-02-25T06:00:05.695Z,1345
2023-02-25T06:01:05.690Z,1776
2023-02-25T06:03:05.932Z,1226
2023-02-25T06:04:05.697Z,1587
2023-02-25T06:05:05.662Z,1787
2023-02-25T06:06:05.694Z,1743
2023-02-25T06:08:05.859Z,1610
2023-02-25T06:09:05.685Z,1627
2023-02-25T06:10:05.664Z,1072
2023-02-25T06:11:05.674Z,1138
2023-02-25T06:13:05.868Z,1349
2023-02-25T06:14:05.674Z,1158
2023-02-25T06:15:05.667Z,1332
2023-02-25T06:16:05.729Z,1091
2023-02-25T06:18:05.869Z,1135
2023-02-25T06:19:05.664Z,1316
2023-02-25T06:20:05.675Z,1761
2023-02-25T06:21:05.683Z,1905
2023-02-25T06:23:05.864Z,1587
2023-02-25T06:24:05.838Z,1827
2023-02-25T06:25:05.679Z,1666
2023-02-25T06:26:05.674Z,1880
2023-02-25T06:28:05.869Z,1377
2023-02-25T06:29:05.719Z,2189
2023-02-25T06:30:05.684Z,2351
2023-02-25T06:31:05.748Z,2603
2023-02-25T06:33:05.891Z,2184
2023-02-25T06:34:05.676Z,1562
2023-02-25T06:35:05.673Z,1553
2023-02-25T06:36:05.696Z,1455
2023-02-25T06:38:05.884Z,2166
2023-02-25T06:39:05.687Z,2222
2023-02-25T06:40:05.680Z,2216
2023-02-25T06:41:05.685Z,1758
2023-02-25T06:43:05.835Z,1743
2023-02-25T06:44:05.679Z,2216
2023-02-25T06:45:05.678Z,2222
2023-02-25T06:46:05.737Z,1779
2023-02-25T06:48:05.879Z,2096
2023-02-25T06:49:05.685Z,1782
2023-02-25T06:50:05.712Z,1817
2023-02-25T06:51:05.703Z,1991
2023-02-25T06:53:05.909Z,2363
2023-02-25T06:54:05.678Z,2432
2023-02-25T06:55:05.683Z,2399
2023-02-25T06:56:05.693Z,2556
2023-02-25T06:58:05.877Z,1753
2023-02-25T06:59:05.677Z,1890
2023-02-25T07:00:05.673Z,2432
2023-02-25T07:01:05.734Z,2576
2023-02-25T07:03:05.897Z,2630
2023-02-25T07:04:05.801Z,1869
2023-02-25T07:05:05.710Z,1944
2023-02-25T07:06:05.685Z,2236
2023-02-25T07:08:05.885Z,2637
2023-02-25T07:09:05.714Z,2440
2023-02-25T07:10:05.689Z,1803
2023-02-25T07:11:05.695Z,2382
2023-02-25T07:13:05.890Z,2228
2023-02-25T07:14:05.687Z,2411
2023-02-25T07:15:05.727Z,2521
2023-02-25T07:16:05.754Z,1840
2023-02-25T07:18:05.894Z,2324
2023-02-25T07:19:05.686Z,1854
2023-02-25T07:20:05.703Z,1803
2023-02-25T07:21:05.707Z,2249
2023-02-25T07:23:05.901Z,2195
2023-02-25T07:24:05.687Z,1701
2023-02-25T07:25:05.731Z,1666
2023-02-25T07:26:05.716Z,2166
2023-02-25T07:28:05.883Z,2201
2023-02-25T07:29:05.694Z,2128
2023-02-25T07:30:05.697Z,1587
2023-02-25T07:31:05.770Z,1876
2023-02-25T07:33:06.171Z,2050
2023-02-25T07:34:05.718Z,1944
2023-02-25T07:35:05.727Z,2324
2023-02-25T07:36:05.695Z,1517
2023-02-25T07:38:05.857Z,2236
2023-02-25T07:39:05.720Z,1517
2023-02-25T07:40:05.733Z,2037
2023-02-25T07:41:05.711Z,2037
2023-02-25T07:43:05.903Z,1596
2023-02-25T07:44:05.729Z,2485
2023-02-25T07:45:05.725Z,2406
2023-02-25T07:46:05.748Z,1564
2023-02-25T07:48:05.905Z,1996
2023-02-25T07:49:05.727Z,1869
2023-02-25T07:50:05.706Z,1455
2023-02-25T07:51:05.723Z,1310
2023-02-25T07:53:05.912Z,1920
2023-02-25T07:54:05.702Z,1627
2023-02-25T07:55:05.710Z,1214
2023-02-25T07:56:05.771Z,1684
2023-02-25T07:58:07.343Z,1307
2023-02-25T07:59:05.703Z,1583
2023-02-25T08:00:05.730Z,1189
2023-02-25T08:01:05.704Z,1132
2023-02-25T08:03:05.933Z,1303
2023-02-25T08:04:05.767Z,1255
2023-02-25T08:05:05.701Z,2096
2023-02-25T08:06:05.710Z,1985
2023-02-25T08:08:05.914Z,1235
2023-02-25T08:09:05.841Z,1688
2023-02-25T08:10:05.720Z,1545
2023-02-25T08:11:05.706Z,2228
2023-02-25T08:13:05.892Z,1771
2023-02-25T08:14:05.759Z,1623
2023-02-25T08:15:05.740Z,2050
2023-02-25T08:16:05.761Z,2056
2023-02-25T08:18:05.883Z,1528
2023-02-25T08:19:05.735Z,2172
2023-02-25T08:20:05.709Z,1779
2023-02-25T08:21:05.740Z,1720
2023-02-25T08:23:05.917Z,2236
2023-02-25T08:24:05.744Z,1985
2023-02-25T08:25:05.718Z,1407
2023-02-25T08:26:05.746Z,1417
2023-02-25T08:28:05.871Z,1880
2023-02-25T08:29:05.715Z,1653
2023-02-25T08:30:05.743Z,2056
2023-02-25T08:31:05.817Z,2006
2023-02-25T08:33:05.967Z,1603
2023-02-25T08:34:05.725Z,1885
2023-02-25T08:35:05.720Z,1631
2023-02-25T08:36:05.731Z,1845
2023-02-25T08:38:05.926Z,1939
2023-02-25T08:39:05.719Z,1432
2023-02-25T08:40:05.731Z,1432
2023-02-25T08:41:05.728Z,1955
2023-02-25T08:43:05.951Z,1323
2023-02-25T08:44:05.724Z,1425
2023-02-25T08:45:05.757Z,1895
2023-02-25T08:46:05.720Z,1564
2023-02-25T08:48:05.878Z,1885
2023-02-25T08:49:05.757Z,1397
2023-02-25T08:50:05.755Z,1782
2023-02-25T08:51:05.735Z,1675
2023-02-25T08:53:05.923Z,1743
2023-02-25T08:54:05.787Z,1736
2023-02-25T08:55:05.745Z,1474
2023-02-25T08:56:05.732Z,1199
2023-02-25T08:58:05.891Z,1414
2023-02-25T08:59:05.723Z,1854
2023-02-25T09:00:05.975Z,1701
2023-02-25T09:01:05.774Z,1916
2023-02-25T09:03:05.896Z,1961
2023-02-25T09:04:05.762Z,1366
2023-02-25T09:05:05.760Z,1323
2023-02-25T09:06:05.765Z,1779
2023-02-25T09:08:05.882Z,1840
2023-02-25T09:09:05.722Z,1417
2023-02-25T09:10:05.741Z,1782
2023-02-25T09:11:05.742Z,1573
2023-02-25T09:13:05.937Z,1158
2023-02-25T09:14:05.728Z,1670
2023-02-25T09:15:05.739Z,1316
2023-02-25T09:16:05.801Z,1692
2023-02-25T09:18:05.930Z,1385
2023-02-25T09:19:05.726Z,1489
2023-02-25T09:20:05.729Z,1540
2023-02-25T09:21:05.733Z,1573
2023-02-25T09:23:05.975Z,1500
2023-02-25T09:24:05.751Z,1513
2023-02-25T09:25:05.736Z,1235
2023-02-25T09:26:05.761Z,1606
2023-02-25T09:28:05.931Z,1222
2023-02-25T09:29:05.741Z,1463
2023-02-25T09:30:05.747Z,1110
2023-02-25T09:31:05.791Z,1528
2023-02-25T09:33:06.103Z,1432
2023-02-25T09:34:05.738Z,1436
2023-02-25T09:35:05.772Z,1455
2023-02-25T09:36:05.740Z,1521
2023-02-25T09:38:05.945Z,1258
2023-02-25T09:39:05.740Z,1444
2023-02-25T09:40:05.749Z,974
2023-02-25T09:41:05.740Z,1444
2023-02-25T09:43:05.958Z,1410
2023-02-25T09:44:05.946Z,1310
2023-02-25T09:45:05.748Z,1290
2023-02-25T09:46:05.808Z,1649
2023-02-25T09:48:06.039Z,1164
2023-02-25T09:49:05.744Z,1644
2023-02-25T09:50:05.751Z,1261
2023-02-25T09:51:05.773Z,1238
2023-02-25T09:53:05.895Z,1532
2023-02-25T09:54:08.114Z,1146
2023-02-25T09:55:05.739Z,1508
2023-02-25T09:56:05.780Z,1553
2023-02-25T09:58:05.970Z,1540
2023-02-25T09:59:05.751Z,1085
2023-02-25T10:00:05.753Z,1345
2023-02-25T10:01:05.761Z,1316
2023-02-25T10:03:06.048Z,1417
2023-02-25T10:04:05.788Z,1373
2023-02-25T10:05:05.782Z,1069
2023-02-25T10:06:05.790Z,997
2023-02-25T10:08:05.937Z,919
2023-02-25T10:09:05.772Z,1211
2023-02-25T10:10:05.756Z,843
2023-02-25T10:11:05.770Z,1290
2023-02-25T10:13:05.960Z,940
2023-02-25T10:14:05.788Z,1290
2023-02-25T10:15:05.792Z,998
2023-02-25T10:16:05.815Z,1141
2023-02-25T10:18:05.991Z,1174
2023-02-25T10:19:05.783Z,1174
2023-02-25T10:20:05.757Z,1429
2023-02-25T10:21:05.767Z,1083
2023-02-25T10:23:05.924Z,1088
2023-02-25T10:24:05.794Z,1338
2023-02-25T10:25:05.795Z,1316
2023-02-25T10:26:05.775Z,980
2023-02-25T10:28:06.000Z,1214
2023-02-25T10:29:05.782Z,954
2023-02-25T10:30:05.759Z,911
2023-02-25T10:31:05.937Z,1083
2023-02-25T10:33:05.919Z,1130
2023-02-25T10:34:05.779Z,1174
2023-02-25T10:35:05.784Z,873
2023-02-25T10:36:05.768Z,1116
2023-02-25T10:38:05.965Z,876
2023-02-25T10:39:05.824Z,992
2023-02-25T10:40:05.758Z,945
2023-02-25T10:41:05.801Z,688
2023-02-25T10:43:06.004Z,728
2023-02-25T10:44:05.776Z,1017
2023-02-25T10:45:05.823Z,845
2023-02-25T10:46:05.812Z,1060
2023-02-25T10:48:05.967Z,1069
2023-02-25T10:49:07.101Z,787
2023-02-25T10:50:05.776Z,876
2023-02-25T10:51:05.799Z,896
2023-02-25T10:53:05.924Z,855
2023-02-25T10:54:05.785Z,820
2023-02-25T10:55:05.805Z,885
2023-02-25T10:56:05.776Z,820
2023-02-25T10:58:05.984Z,873
2023-02-25T10:59:05.783Z,683
2023-02-25T11:00:05.875Z,679
2023-02-25T11:01:05.847Z,679
2023-02-25T11:03:05.994Z,679
2023-02-25T11:04:05.783Z,845
2023-02-25T11:05:05.780Z,926
2023-02-25T11:06:05.791Z,845
2023-02-25T11:08:05.983Z,845
2023-02-25T11:09:05.779Z,1069
2023-02-25T11:10:05.785Z,1069
2023-02-25T11:11:05.787Z,1069
2023-02-25T11:13:06.024Z,1069
2023-02-25T11:14:05.786Z,1102
2023-02-25T11:15:05.796Z,1102
2023-02-25T11:16:05.842Z,1102
2023-02-25T11:18:05.999Z,1104
2023-02-25T11:19:05.782Z,1053
2023-02-25T11:20:05.827Z,1053
2023-02-25T11:21:05.785Z,1053
2023-02-25T11:23:06.003Z,1053
2023-02-25T11:24:05.786Z,1116
2023-02-25T11:25:05.811Z,1116
2023-02-25T11:26:05.812Z,1116
2023-02-25T11:28:05.938Z,1116
2023-02-25T11:29:05.817Z,1007
2023-02-25T11:30:05.796Z,1007
2023-02-25T11:31:05.881Z,1007
2023-02-25T11:33:05.936Z,1007
2023-02-25T11:34:05.791Z,1174
2023-02-25T11:35:05.809Z,1174
2023-02-25T11:36:05.788Z,1174
2023-02-25T11:38:05.945Z,1174
2023-02-25T11:39:05.804Z,1078
2023-02-25T11:40:05.815Z,1078
2023-02-25T11:41:05.811Z,1078
2023-02-25T11:43:06.019Z,1078
2023-02-25T11:44:05.805Z,907
2023-02-25T11:45:05.791Z,871
2023-02-25T11:46:05.818Z,1042
2023-02-25T11:48:05.996Z,980
2023-02-25T11:49:05.802Z,838
2023-02-25T11:50:05.816Z,832
2023-02-25T11:51:05.830Z,832
2023-02-25T11:53:05.989Z,855
2023-02-25T11:54:05.826Z,998
2023-02-25T11:55:07.408Z,720
2023-02-25T11:56:05.796Z,907
2023-02-25T11:58:05.950Z,882
2023-02-25T11:59:05.794Z,693
2023-02-25T12:00:05.828Z,692
2023-02-25T12:01:05.795Z,928
2023-02-25T12:03:06.071Z,730
2023-02-25T12:04:05.812Z,814
2023-02-25T12:05:05.821Z,867
2023-02-25T12:06:05.826Z,692
2023-02-25T12:08:13.219Z,930
2023-02-25T12:09:05.811Z,801
2023-02-25T12:10:05.804Z,814
2023-02-25T12:11:05.795Z,775
2023-02-25T12:13:05.960Z,542
2023-02-25T12:14:06.033Z,753
2023-02-25T12:15:05.819Z,625
2023-02-25T12:16:05.915Z,625
2023-02-25T12:18:06.063Z,625
2023-02-25T12:19:05.831Z,1508
2023-02-25T12:20:05.819Z,1508
2023-02-25T12:21:05.819Z,1513
2023-02-25T12:23:06.001Z,1508
2023-02-25T12:24:05.864Z,1545
2023-02-25T12:25:05.798Z,1545
2023-02-25T12:26:05.843Z,1577
2023-02-25T12:28:06.014Z,1545
2023-02-25T12:29:05.815Z,1158
2023-02-25T12:30:05.806Z,1359
2023-02-25T12:31:05.883Z,1158
2023-02-25T12:33:06.020Z,1401
2023-02-25T12:34:05.816Z,1099
2023-02-25T12:35:05.837Z,985
2023-02-25T12:36:05.835Z,1124
2023-02-25T12:38:06.029Z,1056
2023-02-25T12:39:05.813Z,1075
2023-02-25T12:40:05.815Z,1045
2023-02-25T12:41:05.811Z,876
2023-02-25T12:43:06.033Z,1063
2023-02-25T12:44:05.809Z,954
2023-02-25T12:45:05.815Z,947
2023-02-25T12:46:05.849Z,1031
2023-02-25T12:48:05.976Z,1034
2023-02-25T12:49:05.847Z,916
2023-02-25T12:50:05.811Z,675
2023-02-25T12:51:05.839Z,682
2023-02-25T12:53:05.996Z,805
2023-02-25T12:54:05.810Z,976
2023-02-25T12:55:05.838Z,1102
2023-02-25T12:56:05.845Z,1091
2023-02-25T12:58:05.978Z,797
2023-02-25T12:59:05.824Z,971
2023-02-25T13:00:05.845Z,950
2023-02-25T13:01:05.881Z,749
2023-02-25T13:03:05.975Z,811
2023-02-25T13:04:05.841Z,1186
2023-02-25T13:05:05.878Z,1211
2023-02-25T13:06:05.822Z,1281
2023-02-25T13:08:06.020Z,1177
2023-02-25T13:09:05.849Z,1078
2023-02-25T13:10:05.880Z,1290
2023-02-25T13:11:05.892Z,1323
2023-02-25T13:13:05.985Z,1478
2023-02-25T13:14:05.841Z,1573
2023-02-25T13:15:05.832Z,1478
2023-02-25T13:16:05.842Z,1078
2023-02-25T13:18:06.023Z,921
2023-02-25T13:19:05.828Z,1381
2023-02-25T13:20:05.839Z,1093
2023-02-25T13:21:05.855Z,1440
2023-02-25T13:23:05.984Z,1536
2023-02-25T13:24:05.824Z,795
2023-02-25T13:25:05.849Z,1060
2023-02-25T13:26:05.846Z,1081
2023-02-25T13:28:06.034Z,1058
2023-02-25T13:29:05.859Z,669
2023-02-25T13:30:05.873Z,901
2023-02-25T13:31:05.844Z,891
2023-02-25T13:33:06.041Z,843
2023-02-25T13:34:05.873Z,561
2023-02-25T13:35:05.826Z,718
2023-02-25T13:36:05.833Z,720
2023-02-25T13:38:05.992Z,679
2023-02-25T13:39:05.870Z,548
2023-02-25T13:40:05.835Z,775
2023-02-25T13:41:05.874Z,773
2023-02-25T13:43:05.984Z,611
2023-02-25T13:44:05.864Z,732
2023-02-25T13:45:05.859Z,617
2023-02-25T13:46:05.907Z,812
2023-02-25T13:48:06.071Z,554
2023-02-25T13:49:05.838Z,811
2023-02-25T13:50:05.843Z,775
2023-02-25T13:51:05.843Z,706
2023-02-25T13:53:06.047Z,706
2023-02-25T13:54:05.847Z,869
2023-02-25T13:55:05.850Z,869
2023-02-25T13:56:05.847Z,869
2023-02-25T13:58:05.991Z,869
2023-02-25T13:59:05.853Z,896
2023-02-25T14:00:05.857Z,896
2023-02-25T14:01:05.871Z,896
2023-02-25T14:03:05.997Z,896
2023-02-25T14:04:05.841Z,1381
2023-02-25T14:05:05.875Z,1381
2023-02-25T14:06:05.879Z,1381
2023-02-25T14:08:06.005Z,1381
2023-02-25T14:09:05.853Z,1214
2023-02-25T14:10:05.852Z,1214
2023-02-25T14:11:05.874Z,1214
2023-02-25T14:13:06.073Z,1214
2023-02-25T14:14:05.880Z,1186
2023-02-25T14:15:05.880Z,1186
2023-02-25T14:16:05.906Z,1186
2023-02-25T14:18:06.012Z,1186
2023-02-25T14:19:05.886Z,1307
2023-02-25T14:20:05.899Z,1307
2023-02-25T14:21:05.874Z,1307
2023-02-25T14:23:06.055Z,1307
2023-02-25T14:24:05.852Z,1444
2023-02-25T14:25:05.850Z,1444
2023-02-25T14:26:05.878Z,1444
2023-02-25T14:28:06.046Z,1444
2023-02-25T14:29:05.918Z,1779
2023-02-25T14:30:05.868Z,1779
2023-02-25T14:31:05.928Z,1779
2023-02-25T14:33:06.052Z,1779
2023-02-25T14:34:05.880Z,1583
2023-02-25T14:35:05.860Z,1583
2023-02-25T14:36:05.884Z,1583
2023-02-25T14:38:06.063Z,1583
2023-02-25T14:39:05.885Z,1370
2023-02-25T14:40:05.853Z,1370
2023-02-25T14:41:05.864Z,1370
2023-02-25T14:43:06.349Z,1370
2023-02-25T14:44:05.882Z,1132
2023-02-25T14:45:05.870Z,1132
2023-02-25T14:46:05.894Z,1132
2023-02-25T14:48:06.088Z,1132
2023-02-25T14:49:05.887Z,1083
2023-02-25T14:50:05.865Z,1083
2023-02-25T14:51:05.861Z,1083
2023-02-25T14:53:06.072Z,1083
2023-02-25T14:54:05.880Z,1301
2023-02-25T14:55:05.867Z,1301
2023-02-25T14:56:05.885Z,1301
2023-02-25T14:58:06.014Z,1301
2023-02-25T14:59:05.886Z,1248
2023-02-25T15:00:05.855Z,1248
2023-02-25T15:01:05.864Z,1248
2023-02-25T15:03:06.017Z,1248
2023-02-25T15:04:05.891Z,1478
2023-02-25T15:05:05.904Z,1478
2023-02-25T15:06:05.894Z,1478
2023-02-25T15:08:06.015Z,1478
2023-02-25T15:09:05.865Z,1356
2023-02-25T15:10:06.005Z,1356
2023-02-25T15:11:05.869Z,1356
2023-02-25T15:13:06.175Z,1356
2023-02-25T15:14:05.902Z,1577
2023-02-25T15:15:05.911Z,1577
2023-02-25T15:16:05.903Z,1577
2023-02-25T15:18:06.026Z,1577
2023-02-25T15:19:05.899Z,1803
2023-02-25T15:20:05.986Z,1803
2023-02-25T15:21:05.873Z,1803
2023-02-25T15:23:06.027Z,1803
2023-02-25T15:24:05.886Z,1500
2023-02-25T15:25:05.904Z,1500
2023-02-25T15:26:05.878Z,1500
2023-02-25T15:28:06.075Z,1500
2023-02-25T15:29:05.872Z,1425
2023-02-25T15:30:05.875Z,1425
2023-02-25T15:31:06.018Z,1425
2023-02-25T15:33:06.080Z,1425
2023-02-25T15:34:05.903Z,1440
2023-02-25T15:35:05.885Z,1440
2023-02-25T15:36:05.911Z,1440
2023-02-25T15:38:06.072Z,1440
2023-02-25T15:39:05.878Z,1478
2023-02-25T15:40:05.884Z,1478
2023-02-25T15:41:05.889Z,1478
2023-02-25T15:43:06.028Z,1478
2023-02-25T15:44:05.891Z,1478
2023-02-25T15:45:05.910Z,1478
2023-02-25T15:46:05.958Z,1478
2023-02-25T15:48:06.076Z,1478
2023-02-25T15:49:05.887Z,1440
2023-02-25T15:50:05.907Z,1440
2023-02-25T15:51:05.893Z,1549
2023-02-25T15:53:06.091Z,1521
2023-02-25T15:54:05.942Z,1202
2023-02-25T15:55:05.885Z,1202
2023-02-25T15:56:05.893Z,1277
2023-02-25T15:58:06.096Z,1407
2023-02-25T15:59:05.881Z,1135
2023-02-25T16:00:05.924Z,1174
2023-02-25T16:01:05.964Z,1251
2023-02-25T16:03:14.342Z,1102
2023-02-25T16:04:05.901Z,1202
2023-02-25T16:05:05.895Z,1332
2023-02-25T16:06:05.887Z,1264
2023-02-25T16:08:06.041Z,1202
2023-02-25T16:09:05.935Z,1517
2023-02-25T16:10:05.914Z,1517
2023-02-25T16:11:05.901Z,1517
2023-02-25T16:13:06.036Z,1517
2023-02-25T16:14:05.919Z,1255
2023-02-25T16:15:05.913Z,1235
2023-02-25T16:16:05.939Z,1232
2023-02-25T16:18:06.049Z,1232
2023-02-25T16:19:05.927Z,1385
2023-02-25T16:20:05.930Z,1436
2023-02-25T16:21:05.911Z,1549
2023-02-25T16:23:06.119Z,1377
2023-02-25T16:24:05.906Z,1310
2023-02-25T16:25:05.911Z,1180
2023-02-25T16:26:05.899Z,1180
2023-02-25T16:28:06.105Z,1196
2023-02-25T16:29:05.914Z,1393
2023-02-25T16:30:05.959Z,1403
2023-02-25T16:31:05.935Z,1536
2023-02-25T16:33:06.099Z,1393
2023-02-25T16:34:05.970Z,1264
2023-02-25T16:35:05.966Z,1301
2023-02-25T16:36:07.600Z,1264
2023-02-25T16:38:06.113Z,1264
2023-02-25T16:39:05.968Z,1463
2023-02-25T16:40:05.923Z,1463
2023-02-25T16:41:05.957Z,1463
2023-02-25T16:43:06.112Z,1463